KLAW/LAW METAR and TAF weather

Enter ICAO airport designator
Station Type Date Time Source
KLAW METAR 2022/12/04 04:53 UTC NOAA

KLAW 040453Z AUTO 02003KT 10SM CLR 04/M06 A3041 RMK AO2 SLP302 T00391061


Station Type Date Time Source
KLAW Decoded METAR 2022/12/04 04:53 UTC NOAA

LAWTON - FORT SILL REGIONAL, OK, United States (KLAW) 34-34N 98-25W 337M
Dec 03, 2022 - 11:53 PM EST / 2022.12.04 0453 UTC
Wind: from the NNE (020 degrees) at 3 MPH (3 KT):0
Visibility: 10 mile(s):0
Sky conditions: clear
Temperature: 39.0 F (3.9 C)
Dew Point: 21.0 F (-6.1 C)
Relative Humidity: 48%
Pressure (altimeter): 30.41 in. Hg (1029 hPa)
ob: KLAW 040453Z AUTO 02003KT 10SM CLR 04/M06 A3041 RMK AO2 SLP302 T00391061
cycle: 5

Station Type Date Time Source
KLAW TAF 2022/12/03 18:36 UTC NOAA

TAF KLAW 031733Z 0318/0418 03013KT P6SM SCT250
FM040000 12006KT P6SM SCT100 BKN250
FM040600 16006KT P6SM OVC100 PROB30 0408/0414 -RA OVC050

Example: see airport list